sensor_id;sensor_type;location;lat;lon;timestamp;P1;durP1;ratioP1;P2;durP2;ratioP2
8632;SDS011;4354;49.832;10.746;2022-09-01T00:01:26;5.43;;;4.80;;
8632;SDS011;4354;49.832;10.746;2022-09-01T00:03:54;4.47;;;4.07;;
8632;SDS011;4354;49.832;10.746;2022-09-01T00:06:25;4.40;;;4.10;;
8632;SDS011;4354;49.832;10.746;2022-09-01T00:08:52;4.40;;;4.00;;
8632;SDS011;4354;49.832;10.746;2022-09-01T00:11:21;5.07;;;4.57;;
8632;SDS011;4354;49.832;10.746;2022-09-01T00:13:50;4.03;;;3.73;;
8632;SDS011;4354;49.832;10.746;2022-09-01T00:16:18;5.37;;;4.30;;
8632;SDS011;4354;49.832;10.746;2022-09-01T00:18:48;4.57;;;4.17;;
8632;SDS011;4354;49.832;10.746;2022-09-01T00:21:17;5.57;;;4.40;;
8632;SDS011;4354;49.832;10.746;2022-09-01T00:23:46;6.33;;;4.43;;
8632;SDS011;4354;49.832;10.746;2022-09-01T00:26:13;5.30;;;4.47;;
8632;SDS011;4354;49.832;10.746;2022-09-01T00:28:40;4.87;;;4.37;;
8632;SDS011;4354;49.832;10.746;2022-09-01T00:31:07;5.07;;;4.67;;
8632;SDS011;4354;49.832;10.746;2022-09-01T00:33:36;5.27;;;4.33;;
8632;SDS011;4354;49.832;10.746;2022-09-01T00:36:04;5.27;;;4.83;;
8632;SDS011;4354;49.832;10.746;2022-09-01T00:38:32;4.70;;;4.30;;
8632;SDS011;4354;49.832;10.746;2022-09-01T00:40:59;5.30;;;4.80;;
8632;SDS011;4354;49.832;10.746;2022-09-01T00:46:07;5.70;;;5.20;;
8632;SDS011;4354;49.832;10.746;2022-09-01T00:48:36;6.03;;;5.17;;
8632;SDS011;4354;49.832;10.746;2022-09-01T00:51:03;7.33;;;4.80;;
8632;SDS011;4354;49.832;10.746;2022-09-01T00:53:32;5.63;;;5.13;;
8632;SDS011;4354;49.832;10.746;2022-09-01T00:56:01;5.33;;;4.83;;
8632;SDS011;4354;49.832;10.746;2022-09-01T00:58:29;7.30;;;5.10;;
8632;SDS011;4354;49.832;10.746;2022-09-01T01:00:57;5.07;;;4.67;;
8632;SDS011;4354;49.832;10.746;2022-09-01T01:03:24;6.00;;;5.50;;
8632;SDS011;4354;49.832;10.746;2022-09-01T01:05:52;5.17;;;4.77;;
8632;SDS011;4354;49.832;10.746;2022-09-01T01:08:24;5.83;;;5.23;;
8632;SDS011;4354;49.832;10.746;2022-09-01T01:11:00;6.13;;;5.50;;
8632;SDS011;4354;49.832;10.746;2022-09-01T01:13:40;5.70;;;5.30;;
8632;SDS011;4354;49.832;10.746;2022-09-01T01:16:22;5.90;;;5.40;;
8632;SDS011;4354;49.832;10.746;2022-09-01T01:18:52;6.57;;;4.93;;
8632;SDS011;4354;49.832;10.746;2022-09-01T01:21:31;6.00;;;5.50;;
8632;SDS011;4354;49.832;10.746;2022-09-01T01:26:51;5.63;;;5.13;;
8632;SDS011;4354;49.832;10.746;2022-09-01T01:29:18;6.17;;;5.63;;
8632;SDS011;4354;49.832;10.746;2022-09-01T01:31:45;5.90;;;5.30;;
8632;SDS011;4354;49.832;10.746;2022-09-01T01:34:19;5.27;;;4.77;;
8632;SDS011;4354;49.832;10.746;2022-09-01T01:36:45;5.60;;;5.10;;
8632;SDS011;4354;49.832;10.746;2022-09-01T01:39:16;5.30;;;4.80;;
8632;SDS011;4354;49.832;10.746;2022-09-01T01:41:45;6.30;;;5.70;;
8632;SDS011;4354;49.832;10.746;2022-09-01T01:44:15;5.60;;;5.20;;
8632;SDS011;4354;49.832;10.746;2022-09-01T01:46:45;6.67;;;5.70;;
8632;SDS011;4354;49.832;10.746;2022-09-01T01:49:16;7.00;;;5.50;;
8632;SDS011;4354;49.832;10.746;2022-09-01T01:51:46;7.80;;;5.53;;
8632;SDS011;4354;49.832;10.746;2022-09-01T01:54:14;5.90;;;5.30;;
8632;SDS011;4354;49.832;10.746;2022-09-01T01:56:42;7.30;;;5.80;;
8632;SDS011;4354;49.832;10.746;2022-09-01T01:59:09;6.23;;;5.73;;
8632;SDS011;4354;49.832;10.746;2022-09-01T02:01:42;6.07;;;5.33;;
8632;SDS011;4354;49.832;10.746;2022-09-01T02:04:17;5.83;;;5.33;;
8632;SDS011;4354;49.832;10.746;2022-09-01T02:06:45;6.57;;;5.57;;
8632;SDS011;4354;49.832;10.746;2022-09-01T02:09:14;6.83;;;5.70;;
8632;SDS011;4354;49.832;10.746;2022-09-01T02:11:42;6.47;;;5.80;;
8632;SDS011;4354;49.832;10.746;2022-09-01T02:14:10;6.40;;;5.90;;
8632;SDS011;4354;49.832;10.746;2022-09-01T02:16:39;7.57;;;5.83;;
8632;SDS011;4354;49.832;10.746;2022-09-01T02:19:07;6.10;;;5.50;;
8632;SDS011;4354;49.832;10.746;2022-09-01T02:21:37;6.40;;;5.80;;
8632;SDS011;4354;49.832;10.746;2022-09-01T02:24:18;6.20;;;5.60;;
8632;SDS011;4354;49.832;10.746;2022-09-01T02:26:46;5.53;;;5.03;;
8632;SDS011;4354;49.832;10.746;2022-09-01T02:29:17;5.53;;;5.03;;
8632;SDS011;4354;49.832;10.746;2022-09-01T02:31:48;5.67;;;5.17;;
8632;SDS011;4354;49.832;10.746;2022-09-01T02:34:17;5.97;;;5.47;;
8632;SDS011;4354;49.832;10.746;2022-09-01T02:36:47;5.57;;;5.17;;
8632;SDS011;4354;49.832;10.746;2022-09-01T02:39:20;6.53;;;5.93;;
8632;SDS011;4354;49.832;10.746;2022-09-01T02:41:55;5.93;;;5.30;;
8632;SDS011;4354;49.832;10.746;2022-09-01T02:44:21;6.13;;;5.53;;
8632;SDS011;4354;49.832;10.746;2022-09-01T02:46:49;6.37;;;5.83;;
8632;SDS011;4354;49.832;10.746;2022-09-01T02:49:18;6.50;;;5.67;;
8632;SDS011;4354;49.832;10.746;2022-09-01T02:51:50;6.97;;;5.80;;
8632;SDS011;4354;49.832;10.746;2022-09-01T02:54:20;5.50;;;5.00;;
8632;SDS011;4354;49.832;10.746;2022-09-01T02:56:51;5.80;;;5.30;;
8632;SDS011;4354;49.832;10.746;2022-09-01T02:59:20;6.37;;;5.80;;
8632;SDS011;4354;49.832;10.746;2022-09-01T03:01:49;6.10;;;5.50;;
8632;SDS011;4354;49.832;10.746;2022-09-01T03:04:17;6.60;;;6.00;;
8632;SDS011;4354;49.832;10.746;2022-09-01T03:06:45;6.87;;;5.53;;
8632;SDS011;4354;49.832;10.746;2022-09-01T03:09:13;6.40;;;5.77;;
8632;SDS011;4354;49.832;10.746;2022-09-01T03:11:43;6.77;;;5.87;;
8632;SDS011;4354;49.832;10.746;2022-09-01T03:14:15;6.03;;;5.43;;
8632;SDS011;4354;49.832;10.746;2022-09-01T03:16:42;5.70;;;5.13;;
8632;SDS011;4354;49.832;10.746;2022-09-01T03:19:09;5.77;;;5.33;;
8632;SDS011;4354;49.832;10.746;2022-09-01T03:21:38;6.30;;;5.37;;
8632;SDS011;4354;49.832;10.746;2022-09-01T03:24:07;5.83;;;5.33;;
8632;SDS011;4354;49.832;10.746;2022-09-01T03:26:35;5.87;;;5.27;;
8632;SDS011;4354;49.832;10.746;2022-09-01T03:29:02;6.47;;;5.60;;
8632;SDS011;4354;49.832;10.746;2022-09-01T03:31:29;6.90;;;5.70;;
8632;SDS011;4354;49.832;10.746;2022-09-01T03:33:57;6.87;;;5.70;;
8632;SDS011;4354;49.832;10.746;2022-09-01T03:36:26;6.07;;;5.57;;
8632;SDS011;4354;49.832;10.746;2022-09-01T03:38:55;6.57;;;5.47;;
8632;SDS011;4354;49.832;10.746;2022-09-01T03:41:24;8.03;;;5.47;;
8632;SDS011;4354;49.832;10.746;2022-09-01T03:43:53;6.27;;;5.70;;
8632;SDS011;4354;49.832;10.746;2022-09-01T03:46:23;5.83;;;5.33;;
8632;SDS011;4354;49.832;10.746;2022-09-01T03:48:53;6.70;;;5.53;;
8632;SDS011;4354;49.832;10.746;2022-09-01T03:51:21;6.27;;;5.67;;
8632;SDS011;4354;49.832;10.746;2022-09-01T03:53:50;5.70;;;5.20;;
8632;SDS011;4354;49.832;10.746;2022-09-01T03:56:23;5.43;;;4.93;;
8632;SDS011;4354;49.832;10.746;2022-09-01T03:58:53;5.80;;;5.40;;
8632;SDS011;4354;49.832;10.746;2022-09-01T04:01:22;5.97;;;5.17;;
8632;SDS011;4354;49.832;10.746;2022-09-01T04:03:54;5.67;;;5.17;;
8632;SDS011;4354;49.832;10.746;2022-09-01T04:06:21;5.60;;;5.10;;
8632;SDS011;4354;49.832;10.746;2022-09-01T04:08:50;7.93;;;5.23;;
8632;SDS011;4354;49.832;10.746;2022-09-01T04:11:22;8.00;;;5.47;;
8632;SDS011;4354;49.832;10.746;2022-09-01T04:13:50;6.27;;;5.43;;
8632;SDS011;4354;49.832;10.746;2022-09-01T04:16:20;6.10;;;5.50;;
8632;SDS011;4354;49.832;10.746;2022-09-01T04:19:07;7.53;;;5.83;;
8632;SDS011;4354;49.832;10.746;2022-09-01T04:21:46;6.40;;;5.73;;
8632;SDS011;4354;49.832;10.746;2022-09-01T04:24:17;6.30;;;5.77;;
8632;SDS011;4354;49.832;10.746;2022-09-01T04:26:45;6.60;;;6.00;;
8632;SDS011;4354;49.832;10.746;2022-09-01T04:29:15;7.93;;;5.70;;
8632;SDS011;4354;49.832;10.746;2022-09-01T04:31:44;6.93;;;6.30;;
8632;SDS011;4354;49.832;10.746;2022-09-01T04:34:14;6.53;;;5.90;;
8632;SDS011;4354;49.832;10.746;2022-09-01T04:36:42;6.73;;;6.03;;
8632;SDS011;4354;49.832;10.746;2022-09-01T04:39:10;8.03;;;5.70;;
8632;SDS011;4354;49.832;10.746;2022-09-01T04:41:42;6.37;;;5.63;;
8632;SDS011;4354;49.832;10.746;2022-09-01T04:44:16;6.80;;;5.90;;
8632;SDS011;4354;49.832;10.746;2022-09-01T04:46:44;7.23;;;5.67;;
8632;SDS011;4354;49.832;10.746;2022-09-01T04:49:13;8.70;;;6.00;;
8632;SDS011;4354;49.832;10.746;2022-09-01T04:51:48;6.80;;;6.20;;
8632;SDS011;4354;49.832;10.746;2022-09-01T04:54:19;6.63;;;5.93;;
8632;SDS011;4354;49.832;10.746;2022-09-01T04:56:48;7.60;;;7.00;;
8632;SDS011;4354;49.832;10.746;2022-09-01T04:59:20;8.13;;;6.93;;
8632;SDS011;4354;49.832;10.746;2022-09-01T05:01:49;7.60;;;7.00;;
8632;SDS011;4354;49.832;10.746;2022-09-01T05:04:27;7.47;;;6.87;;
8632;SDS011;4354;49.832;10.746;2022-09-01T05:06:58;7.13;;;6.37;;
8632;SDS011;4354;49.832;10.746;2022-09-01T05:09:30;8.70;;;6.73;;
8632;SDS011;4354;49.832;10.746;2022-09-01T05:12:01;7.37;;;6.67;;
8632;SDS011;4354;49.832;10.746;2022-09-01T05:14:42;7.00;;;6.23;;
8632;SDS011;4354;49.832;10.746;2022-09-01T05:17:13;7.00;;;6.30;;
8632;SDS011;4354;49.832;10.746;2022-09-01T05:19:43;6.93;;;6.23;;
8632;SDS011;4354;49.832;10.746;2022-09-01T05:22:13;6.50;;;5.90;;
8632;SDS011;4354;49.832;10.746;2022-09-01T05:24:40;6.40;;;5.80;;
8632;SDS011;4354;49.832;10.746;2022-09-01T05:27:07;6.77;;;5.17;;
8632;SDS011;4354;49.832;10.746;2022-09-01T05:29:35;9.50;;;6.03;;
8632;SDS011;4354;49.832;10.746;2022-09-01T05:32:04;5.97;;;5.37;;
8632;SDS011;4354;49.832;10.746;2022-09-01T05:34:35;5.70;;;5.17;;
8632;SDS011;4354;49.832;10.746;2022-09-01T05:37:04;6.20;;;5.70;;
8632;SDS011;4354;49.832;10.746;2022-09-01T05:39:33;7.10;;;5.37;;
8632;SDS011;4354;49.832;10.746;2022-09-01T05:42:03;6.90;;;5.07;;
8632;SDS011;4354;49.832;10.746;2022-09-01T05:44:33;5.60;;;5.10;;
8632;SDS011;4354;49.832;10.746;2022-09-01T05:47:09;5.90;;;5.30;;
8632;SDS011;4354;49.832;10.746;2022-09-01T05:49:46;5.50;;;5.10;;
8632;SDS011;4354;49.832;10.746;2022-09-01T05:52:15;5.30;;;4.90;;
8632;SDS011;4354;49.832;10.746;2022-09-01T05:54:42;5.70;;;5.20;;
8632;SDS011;4354;49.832;10.746;2022-09-01T05:57:09;6.40;;;5.63;;
8632;SDS011;4354;49.832;10.746;2022-09-01T05:59:56;6.83;;;5.40;;
8632;SDS011;4354;49.832;10.746;2022-09-01T06:02:23;5.57;;;5.03;;
8632;SDS011;4354;49.832;10.746;2022-09-01T06:04:52;6.13;;;5.53;;
8632;SDS011;4354;49.832;10.746;2022-09-01T06:07:22;6.10;;;5.50;;
8632;SDS011;4354;49.832;10.746;2022-09-01T06:09:53;7.37;;;5.77;;
8632;SDS011;4354;49.832;10.746;2022-09-01T06:12:20;6.07;;;5.57;;
8632;SDS011;4354;49.832;10.746;2022-09-01T06:14:50;5.83;;;5.23;;
8632;SDS011;4354;49.832;10.746;2022-09-01T06:17:19;6.20;;;5.50;;
8632;SDS011;4354;49.832;10.746;2022-09-01T06:19:50;5.43;;;4.93;;
8632;SDS011;4354;49.832;10.746;2022-09-01T06:22:19;6.10;;;5.60;;
8632;SDS011;4354;49.832;10.746;2022-09-01T06:24:46;5.73;;;5.23;;
8632;SDS011;4354;49.832;10.746;2022-09-01T06:27:21;8.53;;;5.30;;
8632;SDS011;4354;49.832;10.746;2022-09-01T06:29:48;5.43;;;4.97;;
8632;SDS011;4354;49.832;10.746;2022-09-01T06:32:18;6.13;;;5.17;;
8632;SDS011;4354;49.832;10.746;2022-09-01T06:34:45;6.13;;;4.40;;
8632;SDS011;4354;49.832;10.746;2022-09-01T06:37:16;5.37;;;4.87;;
8632;SDS011;4354;49.832;10.746;2022-09-01T06:39:47;5.20;;;4.67;;
8632;SDS011;4354;49.832;10.746;2022-09-01T06:42:15;5.67;;;4.90;;
8632;SDS011;4354;49.832;10.746;2022-09-01T06:44:42;5.13;;;4.63;;
8632;SDS011;4354;49.832;10.746;2022-09-01T06:47:11;4.43;;;4.03;;
8632;SDS011;4354;49.832;10.746;2022-09-01T06:49:38;4.57;;;4.17;;
8632;SDS011;4354;49.832;10.746;2022-09-01T06:52:06;6.90;;;4.30;;
8632;SDS011;4354;49.832;10.746;2022-09-01T06:54:33;5.00;;;4.03;;
8632;SDS011;4354;49.832;10.746;2022-09-01T06:57:04;5.77;;;3.80;;
8632;SDS011;4354;49.832;10.746;2022-09-01T06:59:52;5.70;;;3.87;;
8632;SDS011;4354;49.832;10.746;2022-09-01T07:02:20;4.82;;;4.35;;
8632;SDS011;4354;49.832;10.746;2022-09-01T07:04:51;4.03;;;3.67;;
8632;SDS011;4354;49.832;10.746;2022-09-01T07:07:18;7.10;;;3.20;;
8632;SDS011;4354;49.832;10.746;2022-09-01T07:10:07;4.97;;;3.45;;
8632;SDS011;4354;49.832;10.746;2022-09-01T07:12:50;5.13;;;3.33;;
8632;SDS011;4354;49.832;10.746;2022-09-01T07:15:38;3.45;;;3.17;;
8632;SDS011;4354;49.832;10.746;2022-09-01T07:18:26;5.47;;;2.70;;
8632;SDS011;4354;49.832;10.746;2022-09-01T07:20:54;4.20;;;2.60;;
8632;SDS011;4354;49.832;10.746;2022-09-01T07:23:33;5.00;;;2.90;;
8632;SDS011;4354;49.832;10.746;2022-09-01T07:26:20;4.10;;;2.83;;
8632;SDS011;4354;49.832;10.746;2022-09-01T07:28:52;3.45;;;3.00;;
8632;SDS011;4354;49.832;10.746;2022-09-01T07:31:27;7.22;;;2.38;;
8632;SDS011;4354;49.832;10.746;2022-09-01T07:34:17;5.63;;;2.13;;
8632;SDS011;4354;49.832;10.746;2022-09-01T07:37:04;4.05;;;2.10;;
8632;SDS011;4354;49.832;10.746;2022-09-01T07:39:52;3.42;;;2.10;;
8632;SDS011;4354;49.832;10.746;2022-09-01T07:42:20;2.70;;;2.05;;
8632;SDS011;4354;49.832;10.746;2022-09-01T07:45:08;2.47;;;1.90;;
8632;SDS011;4354;49.832;10.746;2022-09-01T07:47:52;5.47;;;1.75;;
8632;SDS011;4354;49.832;10.746;2022-09-01T07:50:20;2.22;;;1.80;;
8632;SDS011;4354;49.832;10.746;2022-09-01T07:53:09;2.25;;;1.65;;
8632;SDS011;4354;49.832;10.746;2022-09-01T07:55:45;2.63;;;1.60;;
8632;SDS011;4354;49.832;10.746;2022-09-01T07:58:15;5.57;;;2.17;;
8632;SDS011;4354;49.832;10.746;2022-09-01T08:00:43;3.97;;;1.75;;
8632;SDS011;4354;49.832;10.746;2022-09-01T08:03:16;2.88;;;1.70;;
8632;SDS011;4354;49.832;10.746;2022-09-01T08:05:44;5.05;;;1.65;;
8632;SDS011;4354;49.832;10.746;2022-09-01T08:08:12;1.85;;;1.48;;
8632;SDS011;4354;49.832;10.746;2022-09-01T08:10:53;2.50;;;1.70;;
8632;SDS011;4354;49.832;10.746;2022-09-01T08:13:29;4.43;;;1.77;;
8632;SDS011;4354;49.832;10.746;2022-09-01T08:16:06;3.05;;;1.60;;
8632;SDS011;4354;49.832;10.746;2022-09-01T08:18:41;1.98;;;1.77;;
8632;SDS011;4354;49.832;10.746;2022-09-01T08:21:17;2.00;;;1.48;;
8632;SDS011;4354;49.832;10.746;2022-09-01T08:23:47;3.47;;;1.77;;
8632;SDS011;4354;49.832;10.746;2022-09-01T08:26:19;3.15;;;1.80;;
8632;SDS011;4354;49.832;10.746;2022-09-01T08:28:50;2.78;;;1.80;;
8632;SDS011;4354;49.832;10.746;2022-09-01T08:31:22;3.38;;;1.73;;
8632;SDS011;4354;49.832;10.746;2022-09-01T08:33:50;2.40;;;1.60;;
8632;SDS011;4354;49.832;10.746;2022-09-01T08:36:17;2.75;;;1.70;;
8632;SDS011;4354;49.832;10.746;2022-09-01T08:38:49;2.60;;;1.77;;
8632;SDS011;4354;49.832;10.746;2022-09-01T08:41:18;3.72;;;1.67;;
8632;SDS011;4354;49.832;10.746;2022-09-01T08:46:40;2.63;;;1.60;;
8632;SDS011;4354;49.832;10.746;2022-09-01T08:49:11;4.13;;;1.77;;
8632;SDS011;4354;49.832;10.746;2022-09-01T08:51:57;1.52;;;1.42;;
8632;SDS011;4354;49.832;10.746;2022-09-01T08:54:38;2.28;;;1.50;;
8632;SDS011;4354;49.832;10.746;2022-09-01T08:57:33;2.03;;;1.80;;
8632;SDS011;4354;49.832;10.746;2022-09-01T09:00:03;1.70;;;1.60;;
8632;SDS011;4354;49.832;10.746;2022-09-01T09:17:16;1.70;;;1.60;;
8632;SDS011;4354;49.832;10.746;2022-09-01T09:19:47;3.72;;;1.70;;
8632;SDS011;4354;49.832;10.746;2022-09-01T09:22:15;1.48;;;1.20;;
8632;SDS011;4354;49.832;10.746;2022-09-01T09:24:47;3.38;;;1.30;;
8632;SDS011;4354;49.832;10.746;2022-09-01T09:27:22;2.15;;;1.45;;
8632;SDS011;4354;49.832;10.746;2022-09-01T09:29:53;3.00;;;1.20;;
8632;SDS011;4354;49.832;10.746;2022-09-01T09:32:44;3.88;;;1.67;;
8632;SDS011;4354;49.832;10.746;2022-09-01T09:35:43;2.88;;;1.60;;
8632;SDS011;4354;49.832;10.746;2022-09-01T09:41:07;2.58;;;1.52;;
8632;SDS011;4354;49.832;10.746;2022-09-01T09:51:42;2.33;;;1.80;;
8632;SDS011;4354;49.832;10.746;2022-09-01T09:56:40;2.00;;;1.77;;
8632;SDS011;4354;49.832;10.746;2022-09-01T09:59:20;2.42;;;1.60;;
8632;SDS011;4354;49.832;10.746;2022-09-01T10:02:31;1.60;;;1.50;;
8632;SDS011;4354;49.832;10.746;2022-09-01T10:08:10;4.20;;;1.50;;
8632;SDS011;4354;49.832;10.746;2022-09-01T10:11:05;2.35;;;1.50;;
8632;SDS011;4354;49.832;10.746;2022-09-01T10:13:33;2.10;;;1.60;;
8632;SDS011;4354;49.832;10.746;2022-09-01T10:16:15;1.98;;;1.48;;
8632;SDS011;4354;49.832;10.746;2022-09-01T10:18:52;1.88;;;1.60;;
8632;SDS011;4354;49.832;10.746;2022-09-01T10:21:33;2.05;;;1.55;;
8632;SDS011;4354;49.832;10.746;2022-09-01T10:24:16;2.28;;;1.25;;
8632;SDS011;4354;49.832;10.746;2022-09-01T10:26:48;2.45;;;1.40;;
8632;SDS011;4354;49.832;10.746;2022-09-01T10:29:23;3.15;;;1.65;;
8632;SDS011;4354;49.832;10.746;2022-09-01T10:32:21;2.67;;;1.30;;
8632;SDS011;4354;49.832;10.746;2022-09-01T10:35:33;1.55;;;1.33;;
8632;SDS011;4354;49.832;10.746;2022-09-01T10:38:06;2.42;;;1.60;;
8632;SDS011;4354;49.832;10.746;2022-09-01T10:40:41;4.68;;;1.80;;
8632;SDS011;4354;49.832;10.746;2022-09-01T10:49:12;1.70;;;1.60;;
8632;SDS011;4354;49.832;10.746;2022-09-01T10:51:53;3.88;;;1.67;;
8632;SDS011;4354;49.832;10.746;2022-09-01T10:55:09;2.50;;;1.58;;
8632;SDS011;4354;49.832;10.746;2022-09-01T11:05:58;1.58;;;1.45;;
8632;SDS011;4354;49.832;10.746;2022-09-01T11:08:42;5.07;;;1.70;;
8632;SDS011;4354;49.832;10.746;2022-09-01T11:11:42;1.77;;;1.35;;
8632;SDS011;4354;49.832;10.746;2022-09-01T11:14:20;2.05;;;1.50;;
8632;SDS011;4354;49.832;10.746;2022-09-01T11:25:45;3.05;;;1.70;;
8632;SDS011;4354;49.832;10.746;2022-09-01T11:28:35;1.20;;;1.10;;
8632;SDS011;4354;49.832;10.746;2022-09-01T11:42:11;2.17;;;1.38;;
8632;SDS011;4354;49.832;10.746;2022-09-01T11:44:48;2.40;;;1.75;;
8632;SDS011;4354;49.832;10.746;2022-09-01T11:47:17;1.50;;;1.40;;
8632;SDS011;4354;49.832;10.746;2022-09-01T11:52:21;2.78;;;1.58;;
8632;SDS011;4354;49.832;10.746;2022-09-01T11:54:50;2.35;;;1.55;;
8632;SDS011;4354;49.832;10.746;2022-09-01T11:57:36;2.78;;;1.65;;
8632;SDS011;4354;49.832;10.746;2022-09-01T12:00:06;2.63;;;1.70;;
8632;SDS011;4354;49.832;10.746;2022-09-01T12:02:46;5.63;;;1.90;;
8632;SDS011;4354;49.832;10.746;2022-09-01T12:05:23;3.15;;;1.40;;
8632;SDS011;4354;49.832;10.746;2022-09-01T12:08:02;3.15;;;1.30;;
8632;SDS011;4354;49.832;10.746;2022-09-01T12:10:40;2.00;;;1.40;;
8632;SDS011;4354;49.832;10.746;2022-09-01T12:13:10;1.48;;;1.25;;
8632;SDS011;4354;49.832;10.746;2022-09-01T12:15:53;1.58;;;1.48;;
8632;SDS011;4354;49.832;10.746;2022-09-01T12:18:46;1.65;;;1.35;;
8632;SDS011;4354;49.832;10.746;2022-09-01T12:21:19;1.58;;;1.40;;
8632;SDS011;4354;49.832;10.746;2022-09-01T12:26:37;2.33;;;1.60;;
8632;SDS011;4354;49.832;10.746;2022-09-01T12:29:04;3.15;;;1.50;;
8632;SDS011;4354;49.832;10.746;2022-09-01T12:31:32;1.60;;;1.50;;
8632;SDS011;4354;49.832;10.746;2022-09-01T12:34:00;3.28;;;1.50;;
8632;SDS011;4354;49.832;10.746;2022-09-01T12:36:34;3.10;;;1.25;;
8632;SDS011;4354;49.832;10.746;2022-09-01T12:39:19;2.08;;;1.63;;
8632;SDS011;4354;49.832;10.746;2022-09-01T12:42:01;2.08;;;1.42;;
8632;SDS011;4354;49.832;10.746;2022-09-01T12:47:06;1.65;;;1.38;;
8632;SDS011;4354;49.832;10.746;2022-09-01T12:54:45;2.95;;;1.27;;
8632;SDS011;4354;49.832;10.746;2022-09-01T13:02:41;1.70;;;1.23;;
8632;SDS011;4354;49.832;10.746;2022-09-01T13:07:44;1.38;;;1.27;;
8632;SDS011;4354;49.832;10.746;2022-09-01T13:10:11;2.17;;;1.60;;
8632;SDS011;4354;49.832;10.746;2022-09-01T13:12:41;2.53;;;1.33;;
8632;SDS011;4354;49.832;10.746;2022-09-01T13:15:09;4.20;;;1.50;;
8632;SDS011;4354;49.832;10.746;2022-09-01T13:17:39;1.90;;;1.30;;
8632;SDS011;4354;49.832;10.746;2022-09-01T13:20:06;1.65;;;1.35;;
8632;SDS011;4354;49.832;10.746;2022-09-01T13:22:34;2.08;;;1.50;;
8632;SDS011;4354;49.832;10.746;2022-09-01T13:25:01;4.97;;;1.85;;
8632;SDS011;4354;49.832;10.746;2022-09-01T13:27:28;2.67;;;1.40;;
8632;SDS011;4354;49.832;10.746;2022-09-01T13:29:55;3.40;;;1.30;;
8632;SDS011;4354;49.832;10.746;2022-09-01T13:32:22;1.98;;;1.50;;
8632;SDS011;4354;49.832;10.746;2022-09-01T13:34:51;3.08;;;1.60;;
8632;SDS011;4354;49.832;10.746;2022-09-01T13:37:19;1.60;;;1.50;;
8632;SDS011;4354;49.832;10.746;2022-09-01T13:39:47;1.52;;;1.40;;
8632;SDS011;4354;49.832;10.746;2022-09-01T13:42:15;2.97;;;1.40;;
8632;SDS011;4354;49.832;10.746;2022-09-01T13:44:43;2.20;;;1.40;;
8632;SDS011;4354;49.832;10.746;2022-09-01T13:47:13;2.60;;;1.40;;
8632;SDS011;4354;49.832;10.746;2022-09-01T13:49:56;1.42;;;1.33;;
8632;SDS011;4354;49.832;10.746;2022-09-01T13:52:35;1.83;;;1.23;;
8632;SDS011;4354;49.832;10.746;2022-09-01T13:55:04;2.03;;;1.30;;
8632;SDS011;4354;49.832;10.746;2022-09-01T13:57:32;1.92;;;1.25;;
8632;SDS011;4354;49.832;10.746;2022-09-01T14:00:03;1.60;;;1.50;;
8632;SDS011;4354;49.832;10.746;2022-09-01T14:02:33;1.60;;;1.50;;
8632;SDS011;4354;49.832;10.746;2022-09-01T14:05:00;2.70;;;1.30;;
8632;SDS011;4354;49.832;10.746;2022-09-01T14:07:27;2.47;;;1.17;;
8632;SDS011;4354;49.832;10.746;2022-09-01T14:09:55;4.70;;;1.35;;
8632;SDS011;4354;49.832;10.746;2022-09-01T14:12:22;3.00;;;1.33;;
8632;SDS011;4354;49.832;10.746;2022-09-01T14:14:49;1.50;;;1.40;;
8632;SDS011;4354;49.832;10.746;2022-09-01T14:17:39;1.67;;;1.30;;
8632;SDS011;4354;49.832;10.746;2022-09-01T14:20:07;2.60;;;1.58;;
8632;SDS011;4354;49.832;10.746;2022-09-01T14:22:39;2.00;;;1.50;;
8632;SDS011;4354;49.832;10.746;2022-09-01T14:25:06;1.55;;;1.40;;
8632;SDS011;4354;49.832;10.746;2022-09-01T14:27:35;1.63;;;1.40;;
8632;SDS011;4354;49.832;10.746;2022-09-01T14:30:04;1.55;;;1.23;;
8632;SDS011;4354;49.832;10.746;2022-09-01T14:32:32;2.15;;;1.45;;
8632;SDS011;4354;49.832;10.746;2022-09-01T14:35:03;1.65;;;1.55;;
8632;SDS011;4354;49.832;10.746;2022-09-01T14:37:35;2.60;;;1.30;;
8632;SDS011;4354;49.832;10.746;2022-09-01T14:40:03;3.67;;;1.58;;
8632;SDS011;4354;49.832;10.746;2022-09-01T14:42:32;2.53;;;1.38;;
8632;SDS011;4354;49.832;10.746;2022-09-01T14:45:02;3.63;;;1.38;;
8632;SDS011;4354;49.832;10.746;2022-09-01T14:47:35;1.60;;;1.40;;
8632;SDS011;4354;49.832;10.746;2022-09-01T14:50:11;2.28;;;1.40;;
8632;SDS011;4354;49.832;10.746;2022-09-01T14:52:42;2.13;;;1.35;;
8632;SDS011;4354;49.832;10.746;2022-09-01T14:55:09;2.83;;;1.60;;
8632;SDS011;4354;49.832;10.746;2022-09-01T14:57:36;1.40;;;1.30;;
8632;SDS011;4354;49.832;10.746;2022-09-01T15:00:05;2.35;;;1.70;;
8632;SDS011;4354;49.832;10.746;2022-09-01T15:02:41;4.00;;;1.58;;
8632;SDS011;4354;49.832;10.746;2022-09-01T15:05:09;4.55;;;1.40;;
8632;SDS011;4354;49.832;10.746;2022-09-01T15:07:37;2.33;;;1.20;;
8632;SDS011;4354;49.832;10.746;2022-09-01T15:10:05;3.97;;;1.50;;
8632;SDS011;4354;49.832;10.746;2022-09-01T15:12:34;1.58;;;1.38;;
8632;SDS011;4354;49.832;10.746;2022-09-01T15:15:05;1.45;;;1.33;;
8632;SDS011;4354;49.832;10.746;2022-09-01T15:17:33;1.95;;;1.50;;
8632;SDS011;4354;49.832;10.746;2022-09-01T15:20:04;2.17;;;1.50;;
8632;SDS011;4354;49.832;10.746;2022-09-01T15:22:50;1.83;;;1.35;;
8632;SDS011;4354;49.832;10.746;2022-09-01T15:25:20;1.65;;;1.30;;
8632;SDS011;4354;49.832;10.746;2022-09-01T15:27:47;2.25;;;1.80;;
8632;SDS011;4354;49.832;10.746;2022-09-01T15:30:14;3.85;;;1.75;;
8632;SDS011;4354;49.832;10.746;2022-09-01T15:32:42;2.00;;;1.70;;
8632;SDS011;4354;49.832;10.746;2022-09-01T15:35:10;3.50;;;1.33;;
8632;SDS011;4354;49.832;10.746;2022-09-01T15:37:38;2.33;;;1.50;;
8632;SDS011;4354;49.832;10.746;2022-09-01T15:40:06;2.35;;;1.58;;
8632;SDS011;4354;49.832;10.746;2022-09-01T15:42:34;4.40;;;1.58;;
8632;SDS011;4354;49.832;10.746;2022-09-01T15:45:04;1.67;;;1.20;;
8632;SDS011;4354;49.832;10.746;2022-09-01T15:47:33;2.50;;;1.58;;
8632;SDS011;4354;49.832;10.746;2022-09-01T15:50:02;1.90;;;1.55;;
8632;SDS011;4354;49.832;10.746;2022-09-01T15:52:32;2.97;;;1.52;;
8632;SDS011;4354;49.832;10.746;2022-09-01T15:55:01;2.58;;;1.67;;
8632;SDS011;4354;49.832;10.746;2022-09-01T15:57:28;4.38;;;1.60;;
8632;SDS011;4354;49.832;10.746;2022-09-01T15:59:55;3.80;;;1.70;;
8632;SDS011;4354;49.832;10.746;2022-09-01T16:02:22;2.55;;;1.33;;
8632;SDS011;4354;49.832;10.746;2022-09-01T16:04:52;1.58;;;1.48;;
8632;SDS011;4354;49.832;10.746;2022-09-01T16:07:22;2.17;;;1.80;;
8632;SDS011;4354;49.832;10.746;2022-09-01T16:09:51;3.78;;;1.80;;
8632;SDS011;4354;49.832;10.746;2022-09-01T16:12:23;3.03;;;1.60;;
8632;SDS011;4354;49.832;10.746;2022-09-01T16:14:54;3.83;;;1.60;;
8632;SDS011;4354;49.832;10.746;2022-09-01T16:25:40;2.10;;;1.73;;
8632;SDS011;4354;49.832;10.746;2022-09-01T16:28:11;2.58;;;1.92;;
8632;SDS011;4354;49.832;10.746;2022-09-01T16:30:55;2.47;;;1.88;;
8632;SDS011;4354;49.832;10.746;2022-09-01T16:33:50;2.75;;;1.80;;
8632;SDS011;4354;49.832;10.746;2022-09-01T16:39:27;3.70;;;2.15;;
8632;SDS011;4354;49.832;10.746;2022-09-01T16:44:57;2.83;;;1.65;;
8632;SDS011;4354;49.832;10.746;2022-09-01T16:56:13;4.38;;;1.70;;
8632;SDS011;4354;49.832;10.746;2022-09-01T16:59:10;1.98;;;1.77;;
8632;SDS011;4354;49.832;10.746;2022-09-01T17:01:46;2.42;;;1.77;;
8632;SDS011;4354;49.832;10.746;2022-09-01T17:04:27;3.20;;;1.75;;
8632;SDS011;4354;49.832;10.746;2022-09-01T17:09:44;1.92;;;1.73;;
8632;SDS011;4354;49.832;10.746;2022-09-01T17:15:07;3.55;;;1.98;;
8632;SDS011;4354;49.832;10.746;2022-09-01T17:17:43;2.45;;;2.03;;
8632;SDS011;4354;49.832;10.746;2022-09-01T17:20:31;2.25;;;1.52;;
8632;SDS011;4354;49.832;10.746;2022-09-01T17:23:01;5.20;;;1.58;;
8632;SDS011;4354;49.832;10.746;2022-09-01T17:25:39;2.05;;;1.60;;
8632;SDS011;4354;49.832;10.746;2022-09-01T17:28:12;3.90;;;1.60;;
8632;SDS011;4354;49.832;10.746;2022-09-01T17:31:31;2.55;;;1.48;;
8632;SDS011;4354;49.832;10.746;2022-09-01T17:37:02;1.75;;;1.60;;
8632;SDS011;4354;49.832;10.746;2022-09-01T17:40:05;3.20;;;1.63;;